CheckWX is a tool to help pilots better visualize weather data.  It is not intended as a substitute for an official pre-flight weather briefing.

04:53:15 UTC

LIBP TAF
Pescara International Airport
Pescara, Italy
TAF LIBP 222300Z 2300/2324 VRB05KT CAVOK

Mar-23@
00:00 UTC

Mar-23 @ 00:00 UTC

Mar-24@
00:00 UTC

Mar-24 @ 00:00 UTC

TAF LIBP 222300Z 2300/2324 VRB05KT CAVOK
Wind
  • Variable at 5 KTS
Conditions
No significant weather
Cloud Levels
  • No significant clouds